sensor_id;sensor_type;location;lat;lon;timestamp;pressure;altitude;pressure_sealevel;temperature;humidity
27685;BME280;46113;50.130;8.526;2023-08-17T04:01:43;99202.97;;;14.75;88.50
27685;BME280;46113;50.130;8.526;2023-08-17T04:04:11;99208.81;;;14.80;88.07
27685;BME280;46113;50.130;8.526;2023-08-17T04:06:37;99205.44;;;14.89;87.84
27685;BME280;46113;50.130;8.526;2023-08-17T04:09:06;99215.31;;;15.00;87.46
27685;BME280;46113;50.130;8.526;2023-08-17T04:11:35;99217.72;;;15.03;87.25
27685;BME280;46113;50.130;8.526;2023-08-17T04:14:03;99220.25;;;15.05;86.96
27685;BME280;46113;50.130;8.526;2023-08-17T04:16:30;99217.75;;;15.15;86.78
27685;BME280;46113;50.130;8.526;2023-08-17T04:18:58;99221.00;;;15.18;86.13
27685;BME280;46113;50.130;8.526;2023-08-17T04:21:25;99226.94;;;15.22;86.11
27685;BME280;46113;50.130;8.526;2023-08-17T04:23:52;99230.19;;;15.26;86.20
27685;BME280;46113;50.130;8.526;2023-08-17T04:26:19;99226.22;;;15.31;85.83
27685;BME280;46113;50.130;8.526;2023-08-17T04:28:47;99238.69;;;15.31;86.06
27685;BME280;46113;50.130;8.526;2023-08-17T04:31:15;99248.63;;;15.29;86.24
27685;BME280;46113;50.130;8.526;2023-08-17T04:33:48;99236.13;;;15.29;86.51
27685;BME280;46113;50.130;8.526;2023-08-17T04:36:15;99237.09;;;15.28;86.68
27685;BME280;46113;50.130;8.526;2023-08-17T04:38:42;99243.03;;;15.20;87.03
27685;BME280;46113;50.130;8.526;2023-08-17T04:41:09;99233.63;;;15.28;87.29
27685;BME280;46113;50.130;8.526;2023-08-17T04:43:36;99229.97;;;15.17;86.33
27685;BME280;46113;50.130;8.526;2023-08-17T04:46:03;99234.78;;;15.01;87.97
27685;BME280;46113;50.130;8.526;2023-08-17T04:48:30;99238.56;;;15.09;88.76
27685;BME280;46113;50.130;8.526;2023-08-17T04:50:57;99237.47;;;14.76;88.75
27685;BME280;46113;50.130;8.526;2023-08-17T04:53:24;99235.19;;;14.71;89.56
27685;BME280;46113;50.130;8.526;2023-08-17T04:55:51;99240.25;;;14.75;89.09
27685;BME280;46113;50.130;8.526;2023-08-17T04:58:18;99240.91;;;14.90;89.68
27685;BME280;46113;50.130;8.526;2023-08-17T05:00:46;99247.56;;;14.95;89.27
27685;BME280;46113;50.130;8.526;2023-08-17T05:03:13;99255.56;;;14.95;89.42
27685;BME280;46113;50.130;8.526;2023-08-17T05:05:57;99241.94;;;15.00;88.06
27685;BME280;46113;50.130;8.526;2023-08-17T05:08:25;99237.81;;;15.07;88.15
27685;BME280;46113;50.130;8.526;2023-08-17T05:10:51;99246.94;;;15.28;88.41
27685;BME280;46113;50.130;8.526;2023-08-17T05:13:18;99237.00;;;15.41;87.52
27685;BME280;46113;50.130;8.526;2023-08-17T05:15:46;99243.66;;;15.47;87.09
27685;BME280;46113;50.130;8.526;2023-08-17T05:18:13;99241.72;;;15.60;86.89
27685;BME280;46113;50.130;8.526;2023-08-17T05:20:42;99236.41;;;15.60;87.09
27685;BME280;46113;50.130;8.526;2023-08-17T05:23:09;99240.38;;;15.66;86.97
27685;BME280;46113;50.130;8.526;2023-08-17T05:25:37;99243.63;;;15.70;87.29
27685;BME280;46113;50.130;8.526;2023-08-17T05:28:04;99243.88;;;15.78;87.55
27685;BME280;46113;50.130;8.526;2023-08-17T05:30:32;99241.09;;;15.91;86.81
27685;BME280;46113;50.130;8.526;2023-08-17T05:32:59;99244.88;;;15.88;86.45
27685;BME280;46113;50.130;8.526;2023-08-17T05:35:26;99239.41;;;15.90;87.24
27685;BME280;46113;50.130;8.526;2023-08-17T05:37:53;99249.97;;;15.92;85.72
27685;BME280;46113;50.130;8.526;2023-08-17T05:40:20;99244.59;;;16.03;86.90
27685;BME280;46113;50.130;8.526;2023-08-17T05:42:47;99252.00;;;15.99;86.16
27685;BME280;46113;50.130;8.526;2023-08-17T05:45:13;99251.66;;;15.81;87.64
27685;BME280;46113;50.130;8.526;2023-08-17T05:47:40;99250.31;;;15.98;86.71
27685;BME280;46113;50.130;8.526;2023-08-17T05:50:07;99247.53;;;15.77;87.88
27685;BME280;46113;50.130;8.526;2023-08-17T05:52:34;99254.66;;;15.76;87.49
27685;BME280;46113;50.130;8.526;2023-08-17T05:55:01;99256.63;;;15.63;87.73
27685;BME280;46113;50.130;8.526;2023-08-17T05:57:28;99256.28;;;15.91;87.16
27685;BME280;46113;50.130;8.526;2023-08-17T05:59:55;99251.38;;;15.84;84.99
27685;BME280;46113;50.130;8.526;2023-08-17T06:02:22;99259.88;;;15.78;86.27
27685;BME280;46113;50.130;8.526;2023-08-17T06:04:49;99259.03;;;15.66;86.66
27685;BME280;46113;50.130;8.526;2023-08-17T06:07:16;99251.53;;;15.71;87.28
27685;BME280;46113;50.130;8.526;2023-08-17T06:09:43;99259.28;;;15.97;86.58
27685;BME280;46113;50.130;8.526;2023-08-17T06:12:09;99257.31;;;16.11;86.42
27685;BME280;46113;50.130;8.526;2023-08-17T06:14:36;99251.91;;;15.89;86.43
27685;BME280;46113;50.130;8.526;2023-08-17T06:17:03;99255.41;;;16.01;85.30
27685;BME280;46113;50.130;8.526;2023-08-17T06:19:30;99256.34;;;16.12;85.13
27685;BME280;46113;50.130;8.526;2023-08-17T06:21:57;99259.06;;;16.33;85.72
27685;BME280;46113;50.130;8.526;2023-08-17T06:24:24;99259.41;;;16.07;84.00
27685;BME280;46113;50.130;8.526;2023-08-17T06:26:51;99261.94;;;15.97;85.33
27685;BME280;46113;50.130;8.526;2023-08-17T06:29:17;99263.91;;;15.95;83.07
27685;BME280;46113;50.130;8.526;2023-08-17T06:31:44;99267.44;;;15.96;84.00
27685;BME280;46113;50.130;8.526;2023-08-17T06:34:11;99271.38;;;16.24;84.08
27685;BME280;46113;50.130;8.526;2023-08-17T06:36:39;99273.75;;;16.39;82.99
27685;BME280;46113;50.130;8.526;2023-08-17T06:39:06;99264.56;;;16.20;82.92
27685;BME280;46113;50.130;8.526;2023-08-17T06:41:33;99262.91;;;16.52;83.28
27685;BME280;46113;50.130;8.526;2023-08-17T06:43:59;99262.97;;;16.62;82.90
27685;BME280;46113;50.130;8.526;2023-08-17T06:46:26;99261.00;;;16.42;81.90
27685;BME280;46113;50.130;8.526;2023-08-17T06:48:54;99267.31;;;16.41;82.87
27685;BME280;46113;50.130;8.526;2023-08-17T06:51:21;99258.91;;;16.46;83.15
27685;BME280;46113;50.130;8.526;2023-08-17T06:53:48;99250.31;;;16.42;81.17
27685;BME280;46113;50.130;8.526;2023-08-17T06:56:15;99253.91;;;16.53;80.96
27685;BME280;46113;50.130;8.526;2023-08-17T06:58:42;99256.66;;;16.74;81.14
27685;BME280;46113;50.130;8.526;2023-08-17T07:01:09;99267.41;;;16.07;81.43
27685;BME280;46113;50.130;8.526;2023-08-17T07:03:36;99274.47;;;16.41;82.36
27685;BME280;46113;50.130;8.526;2023-08-17T07:06:03;99270.97;;;16.94;80.57
27685;BME280;46113;50.130;8.526;2023-08-17T07:08:30;99274.34;;;17.39;79.46
27685;BME280;46113;50.130;8.526;2023-08-17T07:10:57;99266.56;;;17.57;78.43
27685;BME280;46113;50.130;8.526;2023-08-17T07:13:23;99264.53;;;17.91;76.98
27685;BME280;46113;50.130;8.526;2023-08-17T07:15:50;99272.91;;;18.07;76.00
27685;BME280;46113;50.130;8.526;2023-08-17T07:18:17;99267.38;;;17.99;75.79
27685;BME280;46113;50.130;8.526;2023-08-17T07:20:44;99271.88;;;17.88;73.72
27685;BME280;46113;50.130;8.526;2023-08-17T07:23:11;99277.97;;;18.00;74.62
27685;BME280;46113;50.130;8.526;2023-08-17T07:25:38;99276.31;;;18.19;74.41
27685;BME280;46113;50.130;8.526;2023-08-17T07:28:05;99282.75;;;17.97;73.96
27685;BME280;46113;50.130;8.526;2023-08-17T07:30:32;99278.22;;;17.97;72.98
27685;BME280;46113;50.130;8.526;2023-08-17T07:32:59;99283.69;;;17.86;74.04
27685;BME280;46113;50.130;8.526;2023-08-17T07:35:26;99278.66;;;18.03;72.53
27685;BME280;46113;50.130;8.526;2023-08-17T07:37:53;99275.00;;;17.94;73.25
27685;BME280;46113;50.130;8.526;2023-08-17T07:40:34;99270.25;;;18.17;73.11
27685;BME280;46113;50.130;8.526;2023-08-17T07:43:00;99268.63;;;18.56;74.13
27685;BME280;46113;50.130;8.526;2023-08-17T07:45:28;99273.41;;;18.72;72.60
27685;BME280;46113;50.130;8.526;2023-08-17T07:47:54;99276.66;;;18.85;73.27
27685;BME280;46113;50.130;8.526;2023-08-17T07:50:21;99274.97;;;18.84;72.14
27685;BME280;46113;50.130;8.526;2023-08-17T07:52:48;99269.03;;;18.71;72.01
27685;BME280;46113;50.130;8.526;2023-08-17T07:55:15;99266.66;;;18.87;72.38
27685;BME280;46113;50.130;8.526;2023-08-17T07:57:42;99269.28;;;18.97;72.57
27685;BME280;46113;50.130;8.526;2023-08-17T08:00:09;99262.66;;;19.01;71.13
27685;BME280;46113;50.130;8.526;2023-08-17T08:02:36;99263.38;;;19.13;71.88
27685;BME280;46113;50.130;8.526;2023-08-17T08:05:02;99268.59;;;18.95;71.52
27685;BME280;46113;50.130;8.526;2023-08-17T08:07:29;99261.03;;;18.61;71.30
27685;BME280;46113;50.130;8.526;2023-08-17T08:09:56;99262.09;;;19.17;71.23
27685;BME280;46113;50.130;8.526;2023-08-17T08:12:23;99254.91;;;19.08;71.89
27685;BME280;46113;50.130;8.526;2023-08-17T08:14:50;99252.56;;;19.43;69.64
27685;BME280;46113;50.130;8.526;2023-08-17T08:17:17;99259.47;;;19.83;69.49
27685;BME280;46113;50.130;8.526;2023-08-17T08:19:46;99260.78;;;19.69;69.47
27685;BME280;46113;50.130;8.526;2023-08-17T08:22:13;99269.84;;;19.68;68.14
27685;BME280;46113;50.130;8.526;2023-08-17T08:24:39;99268.13;;;20.23;67.92
27685;BME280;46113;50.130;8.526;2023-08-17T08:27:10;99263.38;;;20.72;67.27
27685;BME280;46113;50.130;8.526;2023-08-17T08:29:37;99273.41;;;21.67;66.19
27685;BME280;46113;50.130;8.526;2023-08-17T08:32:04;99265.25;;;22.37;62.75
27685;BME280;46113;50.130;8.526;2023-08-17T08:34:31;99267.66;;;22.90;59.57
27685;BME280;46113;50.130;8.526;2023-08-17T08:36:58;99254.19;;;23.63;56.00
27685;BME280;46113;50.130;8.526;2023-08-17T08:39:28;99263.63;;;24.08;55.63
27685;BME280;46113;50.130;8.526;2023-08-17T08:41:55;99257.28;;;24.47;54.81
27685;BME280;46113;50.130;8.526;2023-08-17T08:44:21;99251.41;;;24.67;56.88
27685;BME280;46113;50.130;8.526;2023-08-17T08:46:48;99249.38;;;24.69;56.80
27685;BME280;46113;50.130;8.526;2023-08-17T08:49:20;99249.97;;;24.32;52.26
27685;BME280;46113;50.130;8.526;2023-08-17T08:51:50;99249.41;;;25.22;49.79
27685;BME280;46113;50.130;8.526;2023-08-17T08:54:21;99247.38;;;24.39;52.61
27685;BME280;46113;50.130;8.526;2023-08-17T08:56:55;99247.28;;;24.94;52.68
27685;BME280;46113;50.130;8.526;2023-08-17T08:59:25;99255.09;;;25.58;50.96
27685;BME280;46113;50.130;8.526;2023-08-17T09:01:55;99237.44;;;25.62;51.93
27685;BME280;46113;50.130;8.526;2023-08-17T09:04:23;99235.16;;;26.33;49.81
27685;BME280;46113;50.130;8.526;2023-08-17T09:06:51;99243.16;;;26.41;50.28
27685;BME280;46113;50.130;8.526;2023-08-17T09:09:18;99243.09;;;27.42;46.23
27685;BME280;46113;50.130;8.526;2023-08-17T09:11:44;99244.22;;;26.90;47.53
27685;BME280;46113;50.130;8.526;2023-08-17T09:14:11;99244.78;;;26.86;45.99
27685;BME280;46113;50.130;8.526;2023-08-17T09:16:38;99239.81;;;27.18;47.31
27685;BME280;46113;50.130;8.526;2023-08-17T09:19:06;99239.31;;;27.36;44.99
27685;BME280;46113;50.130;8.526;2023-08-17T09:21:32;99238.16;;;27.52;44.90
27685;BME280;46113;50.130;8.526;2023-08-17T09:23:59;99241.31;;;26.70;46.92
27685;BME280;46113;50.130;8.526;2023-08-17T09:26:30;99245.03;;;26.03;50.02
27685;BME280;46113;50.130;8.526;2023-08-17T09:28:57;99241.81;;;25.93;48.91
27685;BME280;46113;50.130;8.526;2023-08-17T09:31:25;99239.66;;;26.47;47.77
27685;BME280;46113;50.130;8.526;2023-08-17T09:33:52;99240.88;;;26.44;51.18
27685;BME280;46113;50.130;8.526;2023-08-17T09:36:23;99239.94;;;26.52;48.40
27685;BME280;46113;50.130;8.526;2023-08-17T09:38:51;99239.78;;;25.80;51.60
27685;BME280;46113;50.130;8.526;2023-08-17T09:41:18;99242.59;;;25.42;50.21
27685;BME280;46113;50.130;8.526;2023-08-17T09:43:46;99242.53;;;24.96;54.23
27685;BME280;46113;50.130;8.526;2023-08-17T09:46:14;99247.84;;;25.05;52.01
27685;BME280;46113;50.130;8.526;2023-08-17T09:48:44;99236.19;;;23.96;53.82
27685;BME280;46113;50.130;8.526;2023-08-17T09:51:15;99236.06;;;24.12;56.10
27685;BME280;46113;50.130;8.526;2023-08-17T09:53:42;99233.50;;;24.42;54.06
27685;BME280;46113;50.130;8.526;2023-08-17T09:56:10;99227.13;;;23.80;56.50
27685;BME280;46113;50.130;8.526;2023-08-17T09:58:43;99217.81;;;23.83;59.61
27685;BME280;46113;50.130;8.526;2023-08-17T10:01:10;99220.47;;;23.59;57.54
27685;BME280;46113;50.130;8.526;2023-08-17T10:03:42;99215.97;;;23.43;58.42
27685;BME280;46113;50.130;8.526;2023-08-17T10:06:12;99222.59;;;23.15;58.54
27685;BME280;46113;50.130;8.526;2023-08-17T10:08:43;99215.69;;;23.21;60.08
27685;BME280;46113;50.130;8.526;2023-08-17T10:11:12;99216.00;;;23.35;59.37
27685;BME280;46113;50.130;8.526;2023-08-17T10:13:59;99215.34;;;23.73;58.46
27685;BME280;46113;50.130;8.526;2023-08-17T10:16:38;99215.28;;;23.49;57.55
27685;BME280;46113;50.130;8.526;2023-08-17T10:19:13;99215.34;;;23.33;58.62
27685;BME280;46113;50.130;8.526;2023-08-17T10:21:48;99217.88;;;23.34;58.94
27685;BME280;46113;50.130;8.526;2023-08-17T10:24:17;99219.03;;;23.23;58.80
27685;BME280;46113;50.130;8.526;2023-08-17T10:26:45;99216.38;;;23.32;60.26
27685;BME280;46113;50.130;8.526;2023-08-17T10:29:13;99211.97;;;23.14;59.44
27685;BME280;46113;50.130;8.526;2023-08-17T10:31:44;99213.00;;;23.13;59.24
27685;BME280;46113;50.130;8.526;2023-08-17T10:34:14;99213.06;;;22.88;61.40
27685;BME280;46113;50.130;8.526;2023-08-17T10:36:42;99216.25;;;22.92;61.21
27685;BME280;46113;50.130;8.526;2023-08-17T10:39:24;99214.31;;;23.34;60.52
27685;BME280;46113;50.130;8.526;2023-08-17T10:41:56;99216.03;;;23.26;59.23
27685;BME280;46113;50.130;8.526;2023-08-17T10:44:46;99211.00;;;23.07;59.35
27685;BME280;46113;50.130;8.526;2023-08-17T10:47:31;99206.16;;;22.77;60.30
27685;BME280;46113;50.130;8.526;2023-08-17T10:50:10;99208.69;;;22.45;60.38
27685;BME280;46113;50.130;8.526;2023-08-17T10:52:48;99197.06;;;22.61;61.26
27685;BME280;46113;50.130;8.526;2023-08-17T10:55:14;99205.13;;;22.95;61.31
27685;BME280;46113;50.130;8.526;2023-08-17T10:57:43;99203.25;;;23.12;62.12
27685;BME280;46113;50.130;8.526;2023-08-17T11:02:53;99193.16;;;22.97;60.44
27685;BME280;46113;50.130;8.526;2023-08-17T11:05:51;99192.94;;;23.07;59.72
27685;BME280;46113;50.130;8.526;2023-08-17T11:13:30;99192.47;;;23.04;59.04
27685;BME280;46113;50.130;8.526;2023-08-17T11:15:58;99186.03;;;23.05;58.12
27685;BME280;46113;50.130;8.526;2023-08-17T11:18:30;99194.69;;;22.58;58.31
27685;BME280;46113;50.130;8.526;2023-08-17T11:20:57;99198.06;;;22.44;58.26
27685;BME280;46113;50.130;8.526;2023-08-17T11:23:24;99192.50;;;22.79;57.90
27685;BME280;46113;50.130;8.526;2023-08-17T11:25:52;99196.72;;;22.98;58.05
27685;BME280;46113;50.130;8.526;2023-08-17T11:28:19;99191.06;;;23.24;59.91
27685;BME280;46113;50.130;8.526;2023-08-17T11:30:59;99196.50;;;22.99;58.29
27685;BME280;46113;50.130;8.526;2023-08-17T11:33:30;99194.03;;;22.81;58.04
27685;BME280;46113;50.130;8.526;2023-08-17T11:35:58;99184.53;;;23.02;58.01
27685;BME280;46113;50.130;8.526;2023-08-17T11:38:35;99191.59;;;23.20;57.80
27685;BME280;46113;50.130;8.526;2023-08-17T11:41:02;99186.69;;;23.15;57.41
27685;BME280;46113;50.130;8.526;2023-08-17T11:43:32;99192.41;;;23.20;57.40
27685;BME280;46113;50.130;8.526;2023-08-17T11:46:00;99193.09;;;23.31;59.85
27685;BME280;46113;50.130;8.526;2023-08-17T11:48:28;99189.22;;;23.17;59.82
27685;BME280;46113;50.130;8.526;2023-08-17T11:50:55;99193.00;;;22.99;59.52
27685;BME280;46113;50.130;8.526;2023-08-17T11:53:22;99185.81;;;23.39;59.53
27685;BME280;46113;50.130;8.526;2023-08-17T11:55:49;99189.38;;;23.23;59.25
27685;BME280;46113;50.130;8.526;2023-08-17T11:58:36;99188.38;;;23.33;58.17
27685;BME280;46113;50.130;8.526;2023-08-17T12:01:09;99186.25;;;23.91;56.79
27685;BME280;46113;50.130;8.526;2023-08-17T12:03:37;99185.66;;;24.28;56.09
27685;BME280;46113;50.130;8.526;2023-08-17T12:06:05;99194.25;;;24.55;54.92
27685;BME280;46113;50.130;8.526;2023-08-17T12:08:32;99183.00;;;24.43;56.49
27685;BME280;46113;50.130;8.526;2023-08-17T12:11:02;99185.41;;;24.61;56.55
27685;BME280;46113;50.130;8.526;2023-08-17T12:13:33;99182.94;;;24.28;54.15
27685;BME280;46113;50.130;8.526;2023-08-17T12:16:01;99184.78;;;24.04;56.21
27685;BME280;46113;50.130;8.526;2023-08-17T12:18:32;99182.81;;;23.98;54.46
27685;BME280;46113;50.130;8.526;2023-08-17T12:20:59;99183.53;;;23.91;55.69
27685;BME280;46113;50.130;8.526;2023-08-17T12:23:26;99181.25;;;23.72;55.71
27685;BME280;46113;50.130;8.526;2023-08-17T12:25:54;99176.94;;;23.86;55.75
27685;BME280;46113;50.130;8.526;2023-08-17T12:28:23;99181.16;;;23.97;55.87
27685;BME280;46113;50.130;8.526;2023-08-17T12:31:00;99167.50;;;23.90;56.29
27685;BME280;46113;50.130;8.526;2023-08-17T12:33:27;99168.59;;;24.04;57.27
27685;BME280;46113;50.130;8.526;2023-08-17T12:35:55;99158.41;;;23.59;56.25
27685;BME280;46113;50.130;8.526;2023-08-17T12:38:24;99155.69;;;23.59;56.31
27685;BME280;46113;50.130;8.526;2023-08-17T12:40:52;99157.88;;;23.56;55.26
27685;BME280;46113;50.130;8.526;2023-08-17T12:43:19;99151.25;;;23.35;55.96
27685;BME280;46113;50.130;8.526;2023-08-17T12:45:45;99164.31;;;23.54;55.86
27685;BME280;46113;50.130;8.526;2023-08-17T12:48:12;99153.47;;;23.31;56.00
27685;BME280;46113;50.130;8.526;2023-08-17T12:50:40;99150.81;;;23.54;56.41
27685;BME280;46113;50.130;8.526;2023-08-17T12:53:10;99158.47;;;23.74;55.69
27685;BME280;46113;50.130;8.526;2023-08-17T12:55:37;99156.63;;;23.75;55.20
27685;BME280;46113;50.130;8.526;2023-08-17T12:58:04;99161.41;;;23.64;54.88
27685;BME280;46113;50.130;8.526;2023-08-17T13:00:31;99158.78;;;23.48;54.69
27685;BME280;46113;50.130;8.526;2023-08-17T13:02:58;99157.50;;;23.67;54.15
27685;BME280;46113;50.130;8.526;2023-08-17T13:05:25;99160.72;;;23.62;61.73
27685;BME280;46113;50.130;8.526;2023-08-17T13:07:53;99162.94;;;23.59;55.50
27685;BME280;46113;50.130;8.526;2023-08-17T13:10:20;99158.91;;;23.54;54.79
27685;BME280;46113;50.130;8.526;2023-08-17T13:12:47;99166.22;;;23.77;54.20
27685;BME280;46113;50.130;8.526;2023-08-17T13:15:14;99163.81;;;23.83;54.07
27685;BME280;46113;50.130;8.526;2023-08-17T13:17:41;99169.63;;;24.03;55.92
27685;BME280;46113;50.130;8.526;2023-08-17T13:20:09;99167.50;;;23.90;53.64
27685;BME280;46113;50.130;8.526;2023-08-17T13:22:36;99169.75;;;23.78;56.24
27685;BME280;46113;50.130;8.526;2023-08-17T13:25:04;99178.63;;;23.95;59.53
27685;BME280;46113;50.130;8.526;2023-08-17T13:27:31;99172.31;;;24.03;61.80
27685;BME280;46113;50.130;8.526;2023-08-17T13:30:03;99166.88;;;23.88;61.28
27685;BME280;46113;50.130;8.526;2023-08-17T13:32:30;99168.09;;;24.24;60.22
27685;BME280;46113;50.130;8.526;2023-08-17T13:35:03;99156.06;;;24.11;59.04
27685;BME280;46113;50.130;8.526;2023-08-17T13:37:36;99154.56;;;23.77;57.05
27685;BME280;46113;50.130;8.526;2023-08-17T13:40:04;99157.09;;;24.10;58.23
27685;BME280;46113;50.130;8.526;2023-08-17T13:42:30;99162.72;;;24.24;60.07
27685;BME280;46113;50.130;8.526;2023-08-17T13:44:57;99160.56;;;23.96;62.28
27685;BME280;46113;50.130;8.526;2023-08-17T13:47:24;99154.63;;;24.00;59.87
27685;BME280;46113;50.130;8.526;2023-08-17T13:49:51;99146.31;;;23.78;59.60
27685;BME280;46113;50.130;8.526;2023-08-17T13:52:18;99153.81;;;23.60;60.73
27685;BME280;46113;50.130;8.526;2023-08-17T13:54:45;99158.16;;;23.69;58.84
27685;BME280;46113;50.130;8.526;2023-08-17T13:57:13;99163.59;;;23.61;59.33
27685;BME280;46113;50.130;8.526;2023-08-17T13:59:39;99157.75;;;23.80;60.79
27685;BME280;46113;50.130;8.526;2023-08-17T14:02:07;99145.38;;;23.63;59.97
27685;BME280;46113;50.130;8.526;2023-08-17T14:04:35;99138.09;;;23.63;60.97
27685;BME280;46113;50.130;8.526;2023-08-17T14:07:02;99138.75;;;23.74;59.88
27685;BME280;46113;50.130;8.526;2023-08-17T14:09:30;99136.53;;;23.77;61.32
27685;BME280;46113;50.130;8.526;2023-08-17T14:11:58;99127.38;;;23.55;60.81
27685;BME280;46113;50.130;8.526;2023-08-17T14:14:26;99129.69;;;23.58;61.18
27685;BME280;46113;50.130;8.526;2023-08-17T14:16:53;99130.38;;;23.60;61.26
27685;BME280;46113;50.130;8.526;2023-08-17T14:19:20;99132.97;;;23.77;61.52
27685;BME280;46113;50.130;8.526;2023-08-17T14:21:47;99126.59;;;23.46;61.12
27685;BME280;46113;50.130;8.526;2023-08-17T14:24:13;99122.91;;;23.39;61.33
27685;BME280;46113;50.130;8.526;2023-08-17T14:26:41;99122.63;;;23.57;61.30
27685;BME280;46113;50.130;8.526;2023-08-17T14:29:08;99117.19;;;23.65;60.59
27685;BME280;46113;50.130;8.526;2023-08-17T14:31:35;99117.16;;;23.74;60.85
27685;BME280;46113;50.130;8.526;2023-08-17T14:34:02;99112.06;;;23.79;61.45
27685;BME280;46113;50.130;8.526;2023-08-17T14:36:32;99105.63;;;23.80;60.36
27685;BME280;46113;50.130;8.526;2023-08-17T14:38:59;99097.53;;;23.80;60.08
27685;BME280;46113;50.130;8.526;2023-08-17T14:41:26;99099.09;;;23.98;60.12
27685;BME280;46113;50.130;8.526;2023-08-17T14:43:58;99099.09;;;23.98;60.54
27685;BME280;46113;50.130;8.526;2023-08-17T14:46:28;99094.72;;;23.97;58.60
27685;BME280;46113;50.130;8.526;2023-08-17T14:48:55;99088.25;;;24.06;57.61
27685;BME280;46113;50.130;8.526;2023-08-17T14:51:23;99074.00;;;24.12;58.81
27685;BME280;46113;50.130;8.526;2023-08-17T14:53:57;99072.28;;;24.35;59.51
27685;BME280;46113;50.130;8.526;2023-08-17T14:56:23;99071.59;;;24.17;57.44
27685;BME280;46113;50.130;8.526;2023-08-17T14:58:51;99064.63;;;24.38;58.55
27685;BME280;46113;50.130;8.526;2023-08-17T15:01:17;99067.09;;;24.48;58.99
27685;BME280;46113;50.130;8.526;2023-08-17T15:03:44;99059.38;;;24.06;62.37
27685;BME280;46113;50.130;8.526;2023-08-17T15:06:13;99058.75;;;24.35;60.53
27685;BME280;46113;50.130;8.526;2023-08-17T15:08:59;99057.66;;;24.44;60.96
27685;BME280;46113;50.130;8.526;2023-08-17T15:11:26;99048.88;;;24.27;59.36
27685;BME280;46113;50.130;8.526;2023-08-17T15:13:53;99037.31;;;24.33;60.77
27685;BME280;46113;50.130;8.526;2023-08-17T15:16:20;99029.31;;;24.25;61.99
27685;BME280;46113;50.130;8.526;2023-08-17T15:18:52;99035.44;;;24.18;56.96
27685;BME280;46113;50.130;8.526;2023-08-17T15:21:19;99031.34;;;24.23;57.97
27685;BME280;46113;50.130;8.526;2023-08-17T15:23:46;99024.06;;;23.85;55.37
27685;BME280;46113;50.130;8.526;2023-08-17T15:26:13;99030.72;;;24.20;55.66
27685;BME280;46113;50.130;8.526;2023-08-17T15:28:40;99037.16;;;24.19;54.18
27685;BME280;46113;50.130;8.526;2023-08-17T15:31:07;99039.63;;;24.21;56.92
27685;BME280;46113;50.130;8.526;2023-08-17T15:33:40;99045.31;;;24.50;58.99
27685;BME280;46113;50.130;8.526;2023-08-17T15:36:07;99043.56;;;24.49;60.38
27685;BME280;46113;50.130;8.526;2023-08-17T15:38:34;99048.22;;;24.25;56.93
27685;BME280;46113;50.130;8.526;2023-08-17T15:41:01;99055.50;;;24.24;58.71
27685;BME280;46113;50.130;8.526;2023-08-17T15:43:30;99058.69;;;24.43;60.53
27685;BME280;46113;50.130;8.526;2023-08-17T15:45:57;99061.38;;;23.89;54.99
27685;BME280;46113;50.130;8.526;2023-08-17T15:48:24;99066.28;;;24.24;57.07
27685;BME280;46113;50.130;8.526;2023-08-17T15:50:51;99074.22;;;24.26;55.35
27685;BME280;46113;50.130;8.526;2023-08-17T15:53:18;99070.22;;;24.37;57.24
27685;BME280;46113;50.130;8.526;2023-08-17T15:55:45;99070.59;;;24.33;56.86
27685;BME280;46113;50.130;8.526;2023-08-17T15:58:12;99057.22;;;24.55;58.81
27685;BME280;46113;50.130;8.526;2023-08-17T16:00:39;99077.88;;;24.48;60.83
27685;BME280;46113;50.130;8.526;2023-08-17T16:03:07;99070.88;;;24.39;62.48
27685;BME280;46113;50.130;8.526;2023-08-17T16:05:38;99074.16;;;24.49;61.83
27685;BME280;46113;50.130;8.526;2023-08-17T16:08:05;99066.28;;;24.63;61.37
27685;BME280;46113;50.130;8.526;2023-08-17T16:10:33;99066.03;;;24.34;61.61
27685;BME280;46113;50.130;8.526;2023-08-17T16:13:01;99072.28;;;24.35;60.86
27685;BME280;46113;50.130;8.526;2023-08-17T16:15:28;99065.97;;;24.04;56.49
27685;BME280;46113;50.130;8.526;2023-08-17T16:17:55;99065.72;;;24.29;58.72
27685;BME280;46113;50.130;8.526;2023-08-17T16:20:26;99047.59;;;23.99;57.72
27685;BME280;46113;50.130;8.526;2023-08-17T16:22:56;99049.56;;;23.90;55.43
27685;BME280;46113;50.130;8.526;2023-08-17T16:25:23;99046.75;;;23.99;59.20
27685;BME280;46113;50.130;8.526;2023-08-17T16:27:55;99041.94;;;23.86;57.91
27685;BME280;46113;50.130;8.526;2023-08-17T16:30:23;99042.09;;;23.69;57.61
27685;BME280;46113;50.130;8.526;2023-08-17T16:41:58;99058.69;;;23.81;58.06
27685;BME280;46113;50.130;8.526;2023-08-17T16:44:28;99052.56;;;23.87;57.83
27685;BME280;46113;50.130;8.526;2023-08-17T16:46:57;99056.34;;;23.78;58.09
27685;BME280;46113;50.130;8.526;2023-08-17T16:49:33;99062.53;;;23.63;58.40
27685;BME280;46113;50.130;8.526;2023-08-17T18:15:51;99111.69;;;22.12;67.20
27685;BME280;46113;50.130;8.526;2023-08-17T18:22:27;99115.00;;;21.81;68.65
27685;BME280;46113;50.130;8.526;2023-08-17T18:25:21;99110.44;;;21.65;68.99
27685;BME280;46113;50.130;8.526;2023-08-17T18:28:18;99123.72;;;21.66;68.77
27685;BME280;46113;50.130;8.526;2023-08-17T18:31:03;99132.28;;;21.53;69.00
27685;BME280;46113;50.130;8.526;2023-08-17T18:34:13;99133.88;;;21.29;70.04
27685;BME280;46113;50.130;8.526;2023-08-17T18:40:08;99147.91;;;21.15;70.22
27685;BME280;46113;50.130;8.526;2023-08-17T18:42:41;99155.28;;;21.13;70.01
27685;BME280;46113;50.130;8.526;2023-08-17T18:45:13;99153.78;;;21.10;70.74
27685;BME280;46113;50.130;8.526;2023-08-17T18:48:14;99165.63;;;20.99;71.22
27685;BME280;46113;50.130;8.526;2023-08-17T18:50:57;99175.72;;;20.97;71.17
